sensor_id;sensor_type;location;lat;lon;timestamp;P1;durP1;ratioP1;P2;durP2;ratioP2
68475;SDS011;55464;48.266;14.188;2022-12-26T00:01:31;13.48;;;8.98;;
68475;SDS011;55464;48.266;14.188;2022-12-26T00:03:57;31.40;;;8.63;;
68475;SDS011;55464;48.266;14.188;2022-12-26T00:06:24;17.48;;;8.57;;
68475;SDS011;55464;48.266;14.188;2022-12-26T00:08:52;10.63;;;8.23;;
68475;SDS011;55464;48.266;14.188;2022-12-26T00:11:18;9.55;;;6.93;;
68475;SDS011;55464;48.266;14.188;2022-12-26T00:13:45;11.25;;;7.82;;
68475;SDS011;55464;48.266;14.188;2022-12-26T00:16:15;10.13;;;7.55;;
68475;SDS011;55464;48.266;14.188;2022-12-26T00:18:41;10.25;;;7.38;;
68475;SDS011;55464;48.266;14.188;2022-12-26T00:21:08;11.02;;;7.20;;
68475;SDS011;55464;48.266;14.188;2022-12-26T00:23:35;9.43;;;7.10;;
68475;SDS011;55464;48.266;14.188;2022-12-26T00:26:05;9.82;;;6.95;;
68475;SDS011;55464;48.266;14.188;2022-12-26T00:28:33;11.70;;;7.68;;
68475;SDS011;55464;48.266;14.188;2022-12-26T00:31:03;10.98;;;7.22;;
68475;SDS011;55464;48.266;14.188;2022-12-26T00:33:30;8.93;;;6.30;;
68475;SDS011;55464;48.266;14.188;2022-12-26T00:36:01;11.52;;;7.55;;
68475;SDS011;55464;48.266;14.188;2022-12-26T00:38:28;11.40;;;7.22;;
68475;SDS011;55464;48.266;14.188;2022-12-26T00:40:54;11.63;;;7.10;;
68475;SDS011;55464;48.266;14.188;2022-12-26T00:43:20;10.20;;;6.53;;
68475;SDS011;55464;48.266;14.188;2022-12-26T00:45:48;12.50;;;8.32;;
68475;SDS011;55464;48.266;14.188;2022-12-26T00:48:14;11.30;;;7.47;;
68475;SDS011;55464;48.266;14.188;2022-12-26T00:50:39;14.05;;;7.80;;
68475;SDS011;55464;48.266;14.188;2022-12-26T00:53:06;12.48;;;8.35;;
68475;SDS011;55464;48.266;14.188;2022-12-26T00:55:31;10.13;;;7.38;;
68475;SDS011;55464;48.266;14.188;2022-12-26T00:57:57;13.18;;;7.30;;
68475;SDS011;55464;48.266;14.188;2022-12-26T01:00:23;11.93;;;7.80;;
68475;SDS011;55464;48.266;14.188;2022-12-26T01:02:48;16.45;;;7.82;;
68475;SDS011;55464;48.266;14.188;2022-12-26T01:05:14;12.07;;;7.93;;
68475;SDS011;55464;48.266;14.188;2022-12-26T01:07:40;23.20;;;10.18;;
68475;SDS011;55464;48.266;14.188;2022-12-26T01:10:06;15.82;;;8.38;;
68475;SDS011;55464;48.266;14.188;2022-12-26T01:12:33;14.82;;;8.43;;
68475;SDS011;55464;48.266;14.188;2022-12-26T01:14:59;13.23;;;8.10;;
68475;SDS011;55464;48.266;14.188;2022-12-26T01:17:28;12.98;;;8.10;;
68475;SDS011;55464;48.266;14.188;2022-12-26T01:19:54;14.77;;;8.68;;
68475;SDS011;55464;48.266;14.188;2022-12-26T01:22:21;11.38;;;7.78;;
68475;SDS011;55464;48.266;14.188;2022-12-26T01:24:47;9.60;;;7.30;;
68475;SDS011;55464;48.266;14.188;2022-12-26T01:27:13;12.88;;;7.22;;
68475;SDS011;55464;48.266;14.188;2022-12-26T01:29:38;14.63;;;7.35;;
68475;SDS011;55464;48.266;14.188;2022-12-26T01:32:04;10.20;;;6.85;;
68475;SDS011;55464;48.266;14.188;2022-12-26T01:34:30;14.55;;;7.25;;
68475;SDS011;55464;48.266;14.188;2022-12-26T01:36:56;12.52;;;7.07;;
68475;SDS011;55464;48.266;14.188;2022-12-26T01:39:22;13.05;;;6.60;;
68475;SDS011;55464;48.266;14.188;2022-12-26T01:41:47;11.50;;;6.70;;
68475;SDS011;55464;48.266;14.188;2022-12-26T01:47:16;12.05;;;6.20;;
68475;SDS011;55464;48.266;14.188;2022-12-26T01:49:45;14.98;;;7.43;;
68475;SDS011;55464;48.266;14.188;2022-12-26T01:52:24;22.58;;;8.68;;
68475;SDS011;55464;48.266;14.188;2022-12-26T01:54:57;19.75;;;9.00;;
68475;SDS011;55464;48.266;14.188;2022-12-26T01:57:26;12.52;;;8.07;;
68475;SDS011;55464;48.266;14.188;2022-12-26T01:59:57;18.92;;;8.63;;
68475;SDS011;55464;48.266;14.188;2022-12-26T02:02:24;13.13;;;7.93;;
68475;SDS011;55464;48.266;14.188;2022-12-26T02:04:52;15.65;;;8.20;;
68475;SDS011;55464;48.266;14.188;2022-12-26T02:07:39;16.55;;;8.50;;
68475;SDS011;55464;48.266;14.188;2022-12-26T02:10:10;11.90;;;7.03;;
68475;SDS011;55464;48.266;14.188;2022-12-26T02:12:39;13.10;;;7.22;;
68475;SDS011;55464;48.266;14.188;2022-12-26T02:15:07;14.30;;;7.28;;
68475;SDS011;55464;48.266;14.188;2022-12-26T02:17:35;14.18;;;8.57;;
68475;SDS011;55464;48.266;14.188;2022-12-26T02:22:44;15.15;;;7.97;;
68475;SDS011;55464;48.266;14.188;2022-12-26T02:45:39;9.82;;;6.72;;
68475;SDS011;55464;48.266;14.188;2022-12-26T02:57:15;15.73;;;8.60;;
68475;SDS011;55464;48.266;14.188;2022-12-26T03:00:07;11.38;;;7.07;;
68475;SDS011;55464;48.266;14.188;2022-12-26T03:02:59;8.45;;;6.10;;
68475;SDS011;55464;48.266;14.188;2022-12-26T03:11:45;14.00;;;6.28;;
68475;SDS011;55464;48.266;14.188;2022-12-26T03:14:37;13.38;;;7.05;;
68475;SDS011;55464;48.266;14.188;2022-12-26T03:17:13;15.93;;;7.15;;
68475;SDS011;55464;48.266;14.188;2022-12-26T03:25:09;9.48;;;5.47;;
68475;SDS011;55464;48.266;14.188;2022-12-26T03:27:57;9.65;;;6.30;;
68475;SDS011;55464;48.266;14.188;2022-12-26T03:30:23;7.60;;;4.60;;
68475;SDS011;55464;48.266;14.188;2022-12-26T03:33:07;6.82;;;4.60;;
68475;SDS011;55464;48.266;14.188;2022-12-26T03:35:52;7.38;;;4.82;;
68475;SDS011;55464;48.266;14.188;2022-12-26T03:38:17;5.00;;;4.10;;
68475;SDS011;55464;48.266;14.188;2022-12-26T03:41:01;7.72;;;4.32;;
68475;SDS011;55464;48.266;14.188;2022-12-26T03:44:02;4.35;;;3.40;;
68475;SDS011;55464;48.266;14.188;2022-12-26T03:47:00;6.07;;;3.55;;
68475;SDS011;55464;48.266;14.188;2022-12-26T03:49:58;5.57;;;3.08;;
68475;SDS011;55464;48.266;14.188;2022-12-26T03:52:50;4.13;;;2.85;;
68475;SDS011;55464;48.266;14.188;2022-12-26T03:55:54;4.13;;;3.00;;
68475;SDS011;55464;48.266;14.188;2022-12-26T03:58:58;5.50;;;3.17;;
68475;SDS011;55464;48.266;14.188;2022-12-26T04:01:55;4.22;;;3.65;;
68475;SDS011;55464;48.266;14.188;2022-12-26T04:04:47;3.97;;;3.13;;
68475;SDS011;55464;48.266;14.188;2022-12-26T04:07:35;4.35;;;3.00;;
68475;SDS011;55464;48.266;14.188;2022-12-26T04:10:27;5.50;;;3.80;;
68475;SDS011;55464;48.266;14.188;2022-12-26T04:13:23;3.78;;;3.25;;
68475;SDS011;55464;48.266;14.188;2022-12-26T04:16:26;5.00;;;2.90;;
68475;SDS011;55464;48.266;14.188;2022-12-26T04:19:29;4.32;;;2.95;;
68475;SDS011;55464;48.266;14.188;2022-12-26T04:22:04;4.95;;;2.70;;
68475;SDS011;55464;48.266;14.188;2022-12-26T04:25:10;3.15;;;2.85;;
68475;SDS011;55464;48.266;14.188;2022-12-26T04:28:02;4.57;;;3.10;;
68475;SDS011;55464;48.266;14.188;2022-12-26T04:30:49;4.07;;;3.00;;
68475;SDS011;55464;48.266;14.188;2022-12-26T04:33:55;4.20;;;3.05;;
68475;SDS011;55464;48.266;14.188;2022-12-26T04:36:44;3.20;;;2.90;;
68475;SDS011;55464;48.266;14.188;2022-12-26T04:39:36;3.25;;;2.33;;
68475;SDS011;55464;48.266;14.188;2022-12-26T04:42:22;3.63;;;2.92;;
68475;SDS011;55464;48.266;14.188;2022-12-26T04:45:09;3.33;;;3.00;;
68475;SDS011;55464;48.266;14.188;2022-12-26T04:47:37;4.65;;;3.38;;
68475;SDS011;55464;48.266;14.188;2022-12-26T04:50:22;5.38;;;3.67;;
68475;SDS011;55464;48.266;14.188;2022-12-26T04:52:48;5.75;;;2.72;;
68475;SDS011;55464;48.266;14.188;2022-12-26T04:55:22;4.18;;;2.85;;
68475;SDS011;55464;48.266;14.188;2022-12-26T04:57:50;5.32;;;3.65;;
68475;SDS011;55464;48.266;14.188;2022-12-26T05:00:16;5.18;;;3.55;;
68475;SDS011;55464;48.266;14.188;2022-12-26T05:02:42;4.18;;;3.00;;
68475;SDS011;55464;48.266;14.188;2022-12-26T05:05:27;5.40;;;2.72;;
68475;SDS011;55464;48.266;14.188;2022-12-26T05:08:45;3.42;;;2.70;;
68475;SDS011;55464;48.266;14.188;2022-12-26T05:11:25;9.15;;;4.15;;
68475;SDS011;55464;48.266;14.188;2022-12-26T05:13:52;76.75;;;25.65;;
68475;SDS011;55464;48.266;14.188;2022-12-26T05:16:19;31.00;;;12.13;;
68475;SDS011;55464;48.266;14.188;2022-12-26T05:19:04;17.55;;;10.25;;
68475;SDS011;55464;48.266;14.188;2022-12-26T05:21:49;10.77;;;8.35;;
68475;SDS011;55464;48.266;14.188;2022-12-26T05:24:34;7.07;;;5.32;;
68475;SDS011;55464;48.266;14.188;2022-12-26T05:27:22;5.85;;;5.22;;
68475;SDS011;55464;48.266;14.188;2022-12-26T05:30:07;6.00;;;5.28;;
68475;SDS011;55464;48.266;14.188;2022-12-26T05:32:33;4.38;;;3.97;;
68475;SDS011;55464;48.266;14.188;2022-12-26T05:35:17;3.97;;;3.58;;
68475;SDS011;55464;48.266;14.188;2022-12-26T05:37:43;4.00;;;3.25;;
68475;SDS011;55464;48.266;14.188;2022-12-26T05:40:09;4.05;;;3.30;;
68475;SDS011;55464;48.266;14.188;2022-12-26T05:42:35;3.97;;;3.58;;
68475;SDS011;55464;48.266;14.188;2022-12-26T05:45:01;4.75;;;4.10;;
68475;SDS011;55464;48.266;14.188;2022-12-26T05:47:26;4.75;;;3.13;;
68475;SDS011;55464;48.266;14.188;2022-12-26T05:49:52;3.35;;;3.05;;
68475;SDS011;55464;48.266;14.188;2022-12-26T05:52:18;2.78;;;2.58;;
68475;SDS011;55464;48.266;14.188;2022-12-26T05:54:43;4.95;;;2.92;;
68475;SDS011;55464;48.266;14.188;2022-12-26T05:57:09;6.68;;;3.03;;
68475;SDS011;55464;48.266;14.188;2022-12-26T05:59:35;3.38;;;3.08;;
68475;SDS011;55464;48.266;14.188;2022-12-26T06:02:00;3.53;;;3.22;;
68475;SDS011;55464;48.266;14.188;2022-12-26T06:04:26;3.40;;;3.10;;
68475;SDS011;55464;48.266;14.188;2022-12-26T06:06:54;4.15;;;3.30;;
68475;SDS011;55464;48.266;14.188;2022-12-26T06:09:21;4.03;;;3.70;;
68475;SDS011;55464;48.266;14.188;2022-12-26T06:11:47;4.32;;;3.90;;
68475;SDS011;55464;48.266;14.188;2022-12-26T06:14:13;6.45;;;4.57;;
68475;SDS011;55464;48.266;14.188;2022-12-26T06:16:39;5.30;;;4.13;;
68475;SDS011;55464;48.266;14.188;2022-12-26T06:19:06;4.55;;;4.10;;
68475;SDS011;55464;48.266;14.188;2022-12-26T06:21:31;4.07;;;3.67;;
68475;SDS011;55464;48.266;14.188;2022-12-26T06:23:57;4.80;;;3.22;;
68475;SDS011;55464;48.266;14.188;2022-12-26T06:26:23;9.45;;;3.88;;
68475;SDS011;55464;48.266;14.188;2022-12-26T06:28:49;4.00;;;3.70;;
68475;SDS011;55464;48.266;14.188;2022-12-26T06:31:16;4.10;;;3.20;;
68475;SDS011;55464;48.266;14.188;2022-12-26T06:36:15;3.92;;;3.58;;
68475;SDS011;55464;48.266;14.188;2022-12-26T06:38:43;4.47;;;3.55;;
68475;SDS011;55464;48.266;14.188;2022-12-26T06:41:09;3.42;;;3.13;;
68475;SDS011;55464;48.266;14.188;2022-12-26T06:43:37;3.45;;;3.10;;
68475;SDS011;55464;48.266;14.188;2022-12-26T06:46:03;4.82;;;3.22;;
68475;SDS011;55464;48.266;14.188;2022-12-26T06:48:31;3.33;;;2.97;;
68475;SDS011;55464;48.266;14.188;2022-12-26T06:51:01;3.30;;;3.00;;
68475;SDS011;55464;48.266;14.188;2022-12-26T06:53:28;3.40;;;3.10;;
68475;SDS011;55464;48.266;14.188;2022-12-26T06:55:53;3.58;;;3.13;;
68475;SDS011;55464;48.266;14.188;2022-12-26T06:58:19;3.25;;;2.88;;
68475;SDS011;55464;48.266;14.188;2022-12-26T07:00:45;3.00;;;2.75;;
68475;SDS011;55464;48.266;14.188;2022-12-26T07:03:11;3.83;;;3.22;;
68475;SDS011;55464;48.266;14.188;2022-12-26T07:05:37;4.05;;;3.65;;
68475;SDS011;55464;48.266;14.188;2022-12-26T07:08:03;4.65;;;3.67;;
68475;SDS011;55464;48.266;14.188;2022-12-26T07:10:29;4.10;;;3.70;;
68475;SDS011;55464;48.266;14.188;2022-12-26T07:13:00;6.75;;;3.88;;
68475;SDS011;55464;48.266;14.188;2022-12-26T07:15:25;5.30;;;3.90;;
68475;SDS011;55464;48.266;14.188;2022-12-26T07:17:51;5.55;;;4.45;;
68475;SDS011;55464;48.266;14.188;2022-12-26T07:20:16;6.10;;;4.93;;
68475;SDS011;55464;48.266;14.188;2022-12-26T07:22:42;18.50;;;4.50;;
68475;SDS011;55464;48.266;14.188;2022-12-26T07:25:08;6.78;;;4.40;;
68475;SDS011;55464;48.266;14.188;2022-12-26T07:27:33;9.05;;;5.15;;
68475;SDS011;55464;48.266;14.188;2022-12-26T07:29:59;5.88;;;5.28;;
68475;SDS011;55464;48.266;14.188;2022-12-26T07:32:25;8.30;;;5.07;;
68475;SDS011;55464;48.266;14.188;2022-12-26T07:34:52;5.82;;;4.75;;
68475;SDS011;55464;48.266;14.188;2022-12-26T07:37:17;6.22;;;5.07;;
68475;SDS011;55464;48.266;14.188;2022-12-26T07:39:43;7.13;;;5.75;;
68475;SDS011;55464;48.266;14.188;2022-12-26T07:42:08;7.53;;;6.00;;
68475;SDS011;55464;48.266;14.188;2022-12-26T07:44:34;6.88;;;5.60;;
68475;SDS011;55464;48.266;14.188;2022-12-26T07:47:02;7.93;;;6.25;;
68475;SDS011;55464;48.266;14.188;2022-12-26T07:49:28;6.63;;;5.15;;
68475;SDS011;55464;48.266;14.188;2022-12-26T07:51:54;10.25;;;5.55;;
68475;SDS011;55464;48.266;14.188;2022-12-26T07:54:19;6.13;;;5.05;;
68475;SDS011;55464;48.266;14.188;2022-12-26T07:56:45;5.85;;;4.80;;
68475;SDS011;55464;48.266;14.188;2022-12-26T07:59:12;6.82;;;5.25;;
68475;SDS011;55464;48.266;14.188;2022-12-26T08:01:39;6.30;;;4.35;;
68475;SDS011;55464;48.266;14.188;2022-12-26T08:04:06;8.02;;;5.63;;
68475;SDS011;55464;48.266;14.188;2022-12-26T08:06:31;4.40;;;4.00;;
68475;SDS011;55464;48.266;14.188;2022-12-26T08:08:57;5.57;;;4.22;;
68475;SDS011;55464;48.266;14.188;2022-12-26T08:11:23;4.25;;;3.70;;
68475;SDS011;55464;48.266;14.188;2022-12-26T08:13:49;4.20;;;3.53;;
68475;SDS011;55464;48.266;14.188;2022-12-26T08:16:16;7.00;;;4.95;;
68475;SDS011;55464;48.266;14.188;2022-12-26T08:18:42;5.55;;;4.68;;
68475;SDS011;55464;48.266;14.188;2022-12-26T08:21:08;8.93;;;5.80;;
68475;SDS011;55464;48.266;14.188;2022-12-26T08:23:35;9.88;;;5.57;;
68475;SDS011;55464;48.266;14.188;2022-12-26T08:26:04;11.38;;;6.38;;
68475;SDS011;55464;48.266;14.188;2022-12-26T08:28:31;7.88;;;5.45;;
68475;SDS011;55464;48.266;14.188;2022-12-26T08:30:57;5.60;;;4.90;;
68475;SDS011;55464;48.266;14.188;2022-12-26T08:33:24;5.63;;;4.65;;
68475;SDS011;55464;48.266;14.188;2022-12-26T08:35:49;7.15;;;5.85;;
68475;SDS011;55464;48.266;14.188;2022-12-26T08:38:15;8.52;;;5.13;;
68475;SDS011;55464;48.266;14.188;2022-12-26T08:40:41;6.80;;;4.80;;
68475;SDS011;55464;48.266;14.188;2022-12-26T08:43:07;7.60;;;5.38;;
68475;SDS011;55464;48.266;14.188;2022-12-26T08:45:32;6.65;;;5.03;;
68475;SDS011;55464;48.266;14.188;2022-12-26T08:47:58;7.03;;;5.60;;
68475;SDS011;55464;48.266;14.188;2022-12-26T08:50:24;7.28;;;5.70;;
68475;SDS011;55464;48.266;14.188;2022-12-26T08:52:50;11.48;;;6.75;;
68475;SDS011;55464;48.266;14.188;2022-12-26T08:55:16;7.80;;;6.10;;
68475;SDS011;55464;48.266;14.188;2022-12-26T08:57:41;7.95;;;5.88;;
68475;SDS011;55464;48.266;14.188;2022-12-26T09:00:07;9.80;;;6.57;;
68475;SDS011;55464;48.266;14.188;2022-12-26T09:02:34;9.50;;;6.78;;
68475;SDS011;55464;48.266;14.188;2022-12-26T09:05:00;11.65;;;6.90;;
68475;SDS011;55464;48.266;14.188;2022-12-26T09:07:25;9.05;;;6.90;;
68475;SDS011;55464;48.266;14.188;2022-12-26T09:09:51;11.63;;;6.63;;
68475;SDS011;55464;48.266;14.188;2022-12-26T09:12:17;9.23;;;6.38;;
68475;SDS011;55464;48.266;14.188;2022-12-26T09:14:42;23.48;;;7.53;;
68475;SDS011;55464;48.266;14.188;2022-12-26T09:17:08;9.82;;;6.53;;
68475;SDS011;55464;48.266;14.188;2022-12-26T09:19:35;7.75;;;5.82;;
68475;SDS011;55464;48.266;14.188;2022-12-26T09:22:01;8.65;;;6.53;;
68475;SDS011;55464;48.266;14.188;2022-12-26T09:24:45;9.25;;;7.00;;
68475;SDS011;55464;48.266;14.188;2022-12-26T09:27:11;11.70;;;6.53;;
68475;SDS011;55464;48.266;14.188;2022-12-26T09:29:37;8.27;;;5.85;;
68475;SDS011;55464;48.266;14.188;2022-12-26T09:32:03;9.13;;;6.45;;
68475;SDS011;55464;48.266;14.188;2022-12-26T09:34:29;7.70;;;5.93;;
68475;SDS011;55464;48.266;14.188;2022-12-26T09:36:55;8.38;;;5.63;;
68475;SDS011;55464;48.266;14.188;2022-12-26T09:39:21;8.55;;;5.45;;
68475;SDS011;55464;48.266;14.188;2022-12-26T09:49:33;6.82;;;5.40;;
68475;SDS011;55464;48.266;14.188;2022-12-26T09:52:13;8.05;;;5.68;;
68475;SDS011;55464;48.266;14.188;2022-12-26T09:54:42;8.48;;;5.43;;
68475;SDS011;55464;48.266;14.188;2022-12-26T09:57:18;6.75;;;4.82;;
68475;SDS011;55464;48.266;14.188;2022-12-26T09:59:58;8.13;;;5.85;;
68475;SDS011;55464;48.266;14.188;2022-12-26T10:02:28;8.30;;;5.82;;
68475;SDS011;55464;48.266;14.188;2022-12-26T10:04:53;9.98;;;7.25;;
68475;SDS011;55464;48.266;14.188;2022-12-26T10:07:32;14.25;;;8.35;;
68475;SDS011;55464;48.266;14.188;2022-12-26T10:18:03;11.35;;;7.97;;
68475;SDS011;55464;48.266;14.188;2022-12-26T10:23:24;18.52;;;9.80;;
68475;SDS011;55464;48.266;14.188;2022-12-26T10:25:57;15.73;;;10.13;;
68475;SDS011;55464;48.266;14.188;2022-12-26T10:28:41;20.02;;;11.10;;
68475;SDS011;55464;48.266;14.188;2022-12-26T10:34:04;26.38;;;13.57;;
68475;SDS011;55464;48.266;14.188;2022-12-26T10:36:39;29.23;;;15.98;;
68475;SDS011;55464;48.266;14.188;2022-12-26T10:39:12;42.05;;;14.95;;
68475;SDS011;55464;48.266;14.188;2022-12-26T10:41:45;26.60;;;14.45;;
68475;SDS011;55464;48.266;14.188;2022-12-26T10:44:14;33.28;;;17.15;;
68475;SDS011;55464;48.266;14.188;2022-12-26T10:49:23;35.17;;;17.77;;
68475;SDS011;55464;48.266;14.188;2022-12-26T10:51:50;44.95;;;18.17;;
68475;SDS011;55464;48.266;14.188;2022-12-26T10:54:18;38.28;;;15.48;;
68475;SDS011;55464;48.266;14.188;2022-12-26T10:56:45;32.88;;;15.65;;
68475;SDS011;55464;48.266;14.188;2022-12-26T10:59:14;72.87;;;16.60;;
68475;SDS011;55464;48.266;14.188;2022-12-26T11:01:46;37.05;;;16.08;;
68475;SDS011;55464;48.266;14.188;2022-12-26T11:04:20;35.92;;;17.98;;
68475;SDS011;55464;48.266;14.188;2022-12-26T11:06:49;42.63;;;18.73;;
68475;SDS011;55464;48.266;14.188;2022-12-26T11:12:17;46.78;;;19.92;;
68475;SDS011;55464;48.266;14.188;2022-12-26T11:14:44;36.85;;;18.83;;
68475;SDS011;55464;48.266;14.188;2022-12-26T11:17:12;48.20;;;20.75;;
68475;SDS011;55464;48.266;14.188;2022-12-26T11:19:51;50.05;;;19.85;;
68475;SDS011;55464;48.266;14.188;2022-12-26T11:22:36;44.30;;;19.08;;
68475;SDS011;55464;48.266;14.188;2022-12-26T11:25:09;35.60;;;16.85;;
68475;SDS011;55464;48.266;14.188;2022-12-26T11:27:36;34.75;;;17.38;;
68475;SDS011;55464;48.266;14.188;2022-12-26T11:30:10;39.08;;;16.20;;
68475;SDS011;55464;48.266;14.188;2022-12-26T11:32:46;37.42;;;15.38;;
68475;SDS011;55464;48.266;14.188;2022-12-26T11:35:27;32.58;;;14.43;;
68475;SDS011;55464;48.266;14.188;2022-12-26T11:38:01;32.55;;;15.25;;
68475;SDS011;55464;48.266;14.188;2022-12-26T11:43:23;35.15;;;15.98;;
68475;SDS011;55464;48.266;14.188;2022-12-26T11:45:51;36.53;;;16.30;;
68475;SDS011;55464;48.266;14.188;2022-12-26T11:48:24;30.77;;;15.90;;
68475;SDS011;55464;48.266;14.188;2022-12-26T11:50:51;32.85;;;15.68;;
68475;SDS011;55464;48.266;14.188;2022-12-26T11:53:18;34.60;;;15.35;;
68475;SDS011;55464;48.266;14.188;2022-12-26T11:58:49;27.50;;;15.27;;
68475;SDS011;55464;48.266;14.188;2022-12-26T12:01:15;33.22;;;17.27;;
68475;SDS011;55464;48.266;14.188;2022-12-26T12:03:45;33.15;;;17.13;;
68475;SDS011;55464;48.266;14.188;2022-12-26T12:25:10;28.70;;;15.90;;
68475;SDS011;55464;48.266;14.188;2022-12-26T12:30:25;39.40;;;17.05;;
68475;SDS011;55464;48.266;14.188;2022-12-26T12:35:47;35.95;;;18.63;;
68475;SDS011;55464;48.266;14.188;2022-12-26T12:41:19;43.47;;;19.05;;
68475;SDS011;55464;48.266;14.188;2022-12-26T12:47:16;42.05;;;19.67;;
68475;SDS011;55464;48.266;14.188;2022-12-26T12:50:05;38.85;;;18.08;;
68475;SDS011;55464;48.266;14.188;2022-12-26T12:52:50;40.83;;;18.05;;
68475;SDS011;55464;48.266;14.188;2022-12-26T12:55:42;37.78;;;18.75;;
68475;SDS011;55464;48.266;14.188;2022-12-26T12:58:29;46.50;;;21.60;;
68475;SDS011;55464;48.266;14.188;2022-12-26T13:01:08;38.50;;;19.27;;
68475;SDS011;55464;48.266;14.188;2022-12-26T13:06:10;51.67;;;22.02;;
68475;SDS011;55464;48.266;14.188;2022-12-26T13:17:00;37.53;;;19.83;;
68475;SDS011;55464;48.266;14.188;2022-12-26T13:19:37;44.63;;;21.38;;
68475;SDS011;55464;48.266;14.188;2022-12-26T13:22:26;42.25;;;19.75;;
68475;SDS011;55464;48.266;14.188;2022-12-26T13:25:17;38.92;;;17.40;;
68475;SDS011;55464;48.266;14.188;2022-12-26T13:27:43;33.45;;;14.55;;
68475;SDS011;55464;48.266;14.188;2022-12-26T13:30:14;25.38;;;13.77;;
68475;SDS011;55464;48.266;14.188;2022-12-26T13:32:40;26.77;;;13.68;;
68475;SDS011;55464;48.266;14.188;2022-12-26T13:35:25;24.27;;;13.48;;
68475;SDS011;55464;48.266;14.188;2022-12-26T13:38:11;24.30;;;12.02;;
68475;SDS011;55464;48.266;14.188;2022-12-26T13:40:36;25.30;;;12.77;;
68475;SDS011;55464;48.266;14.188;2022-12-26T13:46:32;25.15;;;12.55;;
68475;SDS011;55464;48.266;14.188;2022-12-26T13:49:25;21.05;;;11.63;;
68475;SDS011;55464;48.266;14.188;2022-12-26T14:09:00;32.10;;;16.08;;
68475;SDS011;55464;48.266;14.188;2022-12-26T14:17:44;29.48;;;14.80;;
68475;SDS011;55464;48.266;14.188;2022-12-26T14:20:25;28.55;;;14.70;;
68475;SDS011;55464;48.266;14.188;2022-12-26T14:27:55;27.73;;;14.35;;
68475;SDS011;55464;48.266;14.188;2022-12-26T14:35:40;25.73;;;13.77;;
68475;SDS011;55464;48.266;14.188;2022-12-26T14:38:32;26.48;;;14.13;;
68475;SDS011;55464;48.266;14.188;2022-12-26T14:41:19;141.27;;;39.78;;
68475;SDS011;55464;48.266;14.188;2022-12-26T14:44:08;42.22;;;19.55;;
68475;SDS011;55464;48.266;14.188;2022-12-26T14:49:35;25.10;;;13.40;;
68475;SDS011;55464;48.266;14.188;2022-12-26T14:54:49;24.35;;;13.63;;
68475;SDS011;55464;48.266;14.188;2022-12-26T15:05:25;17.13;;;10.07;;
68475;SDS011;55464;48.266;14.188;2022-12-26T15:08:03;18.20;;;10.00;;
68475;SDS011;55464;48.266;14.188;2022-12-26T15:36:39;14.60;;;9.20;;
68475;SDS011;55464;48.266;14.188;2022-12-26T15:41:38;15.52;;;9.73;;
68475;SDS011;55464;48.266;14.188;2022-12-26T15:46:44;21.63;;;12.60;;
68475;SDS011;55464;48.266;14.188;2022-12-26T16:00:36;17.30;;;10.38;;
68475;SDS011;55464;48.266;14.188;2022-12-26T16:11:26;18.95;;;12.18;;
68475;SDS011;55464;48.266;14.188;2022-12-26T16:19:13;17.00;;;11.90;;
68475;SDS011;55464;48.266;14.188;2022-12-26T16:21:41;22.85;;;11.93;;
68475;SDS011;55464;48.266;14.188;2022-12-26T16:24:33;21.13;;;12.25;;
68475;SDS011;55464;48.266;14.188;2022-12-26T16:27:01;24.70;;;12.23;;
68475;SDS011;55464;48.266;14.188;2022-12-26T16:29:29;19.75;;;12.63;;
68475;SDS011;55464;48.266;14.188;2022-12-26T16:32:05;19.67;;;12.32;;
68475;SDS011;55464;48.266;14.188;2022-12-26T16:34:33;20.05;;;11.40;;
68475;SDS011;55464;48.266;14.188;2022-12-26T16:37:00;15.43;;;10.40;;
68475;SDS011;55464;48.266;14.188;2022-12-26T16:39:27;20.45;;;11.13;;
68475;SDS011;55464;48.266;14.188;2022-12-26T16:44:43;19.50;;;11.30;;
68475;SDS011;55464;48.266;14.188;2022-12-26T16:47:12;14.63;;;9.75;;
68475;SDS011;55464;48.266;14.188;2022-12-26T16:49:38;16.42;;;10.55;;
68475;SDS011;55464;48.266;14.188;2022-12-26T16:52:09;14.32;;;9.80;;
68475;SDS011;55464;48.266;14.188;2022-12-26T16:54:55;15.85;;;10.43;;
68475;SDS011;55464;48.266;14.188;2022-12-26T16:57:21;15.30;;;10.00;;
68475;SDS011;55464;48.266;14.188;2022-12-26T16:59:51;14.18;;;9.93;;
68475;SDS011;55464;48.266;14.188;2022-12-26T17:02:25;17.08;;;10.88;;
68475;SDS011;55464;48.266;14.188;2022-12-26T17:05:14;15.73;;;9.70;;
68475;SDS011;55464;48.266;14.188;2022-12-26T17:07:50;12.05;;;8.63;;
68475;SDS011;55464;48.266;14.188;2022-12-26T17:12:55;15.00;;;9.18;;
68475;SDS011;55464;48.266;14.188;2022-12-26T17:15:24;13.63;;;8.82;;
68475;SDS011;55464;48.266;14.188;2022-12-26T17:17:52;11.02;;;7.70;;
68475;SDS011;55464;48.266;14.188;2022-12-26T17:22:53;12.10;;;7.45;;
68475;SDS011;55464;48.266;14.188;2022-12-26T17:30:33;8.18;;;5.25;;
68475;SDS011;55464;48.266;14.188;2022-12-26T17:33:02;8.23;;;5.75;;
68475;SDS011;55464;48.266;14.188;2022-12-26T17:35:49;11.23;;;5.82;;
68475;SDS011;55464;48.266;14.188;2022-12-26T17:38:26;10.93;;;6.22;;
68475;SDS011;55464;48.266;14.188;2022-12-26T17:40:53;9.95;;;6.65;;
68475;SDS011;55464;48.266;14.188;2022-12-26T17:45:55;12.40;;;7.63;;
68475;SDS011;55464;48.266;14.188;2022-12-26T17:48:21;11.18;;;7.47;;
68475;SDS011;55464;48.266;14.188;2022-12-26T17:50:48;10.40;;;7.22;;
68475;SDS011;55464;48.266;14.188;2022-12-26T17:53:32;11.30;;;7.03;;
68475;SDS011;55464;48.266;14.188;2022-12-26T17:56:22;12.85;;;7.35;;
68475;SDS011;55464;48.266;14.188;2022-12-26T17:58:49;9.40;;;6.80;;
68475;SDS011;55464;48.266;14.188;2022-12-26T18:01:15;8.77;;;6.38;;
68475;SDS011;55464;48.266;14.188;2022-12-26T18:03:41;9.98;;;5.88;;
68475;SDS011;55464;48.266;14.188;2022-12-26T18:06:08;8.80;;;6.35;;
68475;SDS011;55464;48.266;14.188;2022-12-26T18:08:38;6.53;;;5.72;;
68475;SDS011;55464;48.266;14.188;2022-12-26T18:11:09;9.48;;;6.38;;
68475;SDS011;55464;48.266;14.188;2022-12-26T18:13:36;8.18;;;6.18;;
68475;SDS011;55464;48.266;14.188;2022-12-26T18:16:02;7.07;;;5.95;;
68475;SDS011;55464;48.266;14.188;2022-12-26T18:18:36;7.30;;;5.68;;
68475;SDS011;55464;48.266;14.188;2022-12-26T18:21:03;8.52;;;6.10;;
68475;SDS011;55464;48.266;14.188;2022-12-26T18:23:31;8.27;;;5.88;;
68475;SDS011;55464;48.266;14.188;2022-12-26T18:25:58;8.05;;;6.13;;
68475;SDS011;55464;48.266;14.188;2022-12-26T18:28:25;8.45;;;5.85;;
68475;SDS011;55464;48.266;14.188;2022-12-26T18:30:51;7.45;;;5.63;;
68475;SDS011;55464;48.266;14.188;2022-12-26T18:33:17;7.85;;;5.25;;
68475;SDS011;55464;48.266;14.188;2022-12-26T18:35:43;7.35;;;5.03;;
68475;SDS011;55464;48.266;14.188;2022-12-26T18:38:12;8.40;;;6.30;;
68475;SDS011;55464;48.266;14.188;2022-12-26T18:43:10;11.35;;;6.18;;
68475;SDS011;55464;48.266;14.188;2022-12-26T18:45:37;6.20;;;4.15;;
68475;SDS011;55464;48.266;14.188;2022-12-26T18:48:03;10.23;;;5.03;;
68475;SDS011;55464;48.266;14.188;2022-12-26T18:50:30;5.20;;;3.88;;
68475;SDS011;55464;48.266;14.188;2022-12-26T18:52:56;6.38;;;3.78;;
68475;SDS011;55464;48.266;14.188;2022-12-26T18:55:23;5.10;;;3.30;;
68475;SDS011;55464;48.266;14.188;2022-12-26T18:57:50;4.30;;;3.20;;
68475;SDS011;55464;48.266;14.188;2022-12-26T19:00:16;6.43;;;3.35;;